Time,TemperatureF,DewpointF,PressureIn,WindDirection,WindDirectionDegrees,WindSpeedMPH,WindSpeedGustMPH,Humidity,HourlyPrecipIn,Conditions,Clouds,dailyrainin,SoftwareType,DateUTC
2013-08-26 00:01:00,73.6,65.9,30.28,SW,229,10.0,12.0,77,0.00,,,0.00,Wunderground v.1.15,2013-08-26 04:01:00,
2013-08-26 00:02:00,73.6,66.3,30.28,SW,218,13.0,13.0,78,0.00,,,0.00,Wunderground v.1.15,2013-08-26 04:02:00,
2013-08-26 00:03:00,73.6,66.3,30.28,SW,221,10.0,13.0,78,0.00,,,0.00,Wunderground v.1.15,2013-08-26 04:03:00,
2013-08-26 00:05:00,73.6,65.9,30.28,SW,217,9.0,13.0,77,0.00,,,0.00,Wunderground v.1.15,2013-08-26 04:05:00,
2013-08-26 00:06:00,73.6,66.3,30.28,SW,218,11.0,13.0,78,0.00,,,0.00,Wunderground v.1.15,2013-08-26 04:06:00,
2013-08-26 00:11:00,73.6,66.3,30.28,SW,221,10.0,12.0,78,0.00,,,0.00,Wunderground v.1.15,2013-08-26 04:11:00,
2013-08-26 00:17:00,73.6,66.7,30.28,SW,219,11.0,12.0,79,0.00,,,0.00,Wunderground v.1.15,2013-08-26 04:17:00,
2013-08-26 00:22:00,73.5,65.8,30.27,SW,217,12.0,12.0,77,0.00,,,0.00,Wunderground v.1.15,2013-08-26 04:22:00,
2013-08-26 00:28:00,73.6,67.0,30.27,SW,219,11.0,12.0,80,0.00,,,0.00,Wunderground v.1.15,2013-08-26 04:28:00,
2013-08-26 00:33:00,73.5,66.2,30.27,SW,219,12.0,13.0,78,0.00,,,0.00,Wunderground v.1.15,2013-08-26 04:33:00,
2013-08-26 00:38:00,73.4,65.7,30.27,SW,217,13.0,13.0,77,0.00,,,0.00,Wunderground v.1.15,2013-08-26 04:38:00,
2013-08-26 00:44:00,73.4,65.0,30.27,SSW,206,14.0,15.0,75,0.00,,,0.00,Wunderground v.1.15,2013-08-26 04:44:00,
2013-08-26 00:49:00,73.4,65.7,30.27,SW,215,13.0,15.0,77,0.00,,,0.00,Wunderground v.1.15,2013-08-26 04:49:00,
2013-08-26 00:55:00,73.4,65.4,30.27,SW,224,12.0,13.0,76,0.00,,,0.00,Wunderground v.1.15,2013-08-26 04:55:00,
2013-08-26 01:00:00,73.4,64.6,30.27,SSW,211,15.0,15.0,74,0.00,,,0.00,Wunderground v.1.15,2013-08-26 05:00:00,
2013-08-26 01:05:00,73.4,65.0,30.27,SW,217,13.0,15.0,75,0.00,,,0.00,Wunderground v.1.15,2013-08-26 05:05:00,
2013-08-26 01:10:00,73.4,64.6,30.27,SW,214,15.0,15.0,74,0.00,,,0.00,Wunderground v.1.15,2013-08-26 05:10:00,
2013-08-26 01:16:00,73.4,65.0,30.27,SW,219,10.0,15.0,75,0.00,,,0.00,Wunderground v.1.15,2013-08-26 05:16:00,
2013-08-26 01:21:00,73.3,65.3,30.26,SW,219,10.0,14.0,76,0.00,,,0.00,Wunderground v.1.15,2013-08-26 05:21:00,
2013-08-26 01:27:00,73.2,65.2,30.26,SSW,213,15.0,15.0,76,0.00,,,0.00,Wunderground v.1.15,2013-08-26 05:27:00,
2013-08-26 01:33:00,73.2,65.6,30.25,SW,215,10.0,14.0,77,0.00,,,0.00,Wunderground v.1.15,2013-08-26 05:33:00,
2013-08-26 01:38:00,73.2,65.6,30.25,SSW,209,14.0,17.0,77,0.00,,,0.00,Wunderground v.1.15,2013-08-26 05:38:00,
2013-08-26 01:43:00,73.2,65.2,30.25,SSW,213,13.0,15.0,76,0.00,,,0.00,Wunderground v.1.15,2013-08-26 05:43:00,
2013-08-26 01:48:00,73.2,64.4,30.25,SSW,206,13.0,17.0,74,0.00,,,0.00,Wunderground v.1.15,2013-08-26 05:48:00,
2013-08-26 01:54:00,73.3,64.5,30.25,SSW,210,14.0,16.0,74,0.00,,,0.00,Wunderground v.1.15,2013-08-26 05:54:00,
2013-08-26 02:00:00,73.3,64.9,30.25,SW,214,14.0,14.0,75,0.00,,,0.00,Wunderground v.1.15,2013-08-26 06:00:00,
2013-08-26 02:05:00,73.3,64.5,30.25,SW,215,10.0,14.0,74,0.00,,,0.00,Wunderground v.1.15,2013-08-26 06:05:00,
2013-08-26 02:10:00,73.2,64.0,30.24,SW,218,12.0,13.0,73,0.00,,,0.00,Wunderground v.1.15,2013-08-26 06:10:00,
2013-08-26 02:15:00,73.3,65.3,30.24,SW,217,15.0,17.0,76,0.00,,,0.00,Wunderground v.1.15,2013-08-26 06:15:00,
2013-08-26 02:20:00,73.2,65.2,30.24,SW,221,13.0,13.0,76,0.00,,,0.00,Wunderground v.1.15,2013-08-26 06:20:00,
2013-08-26 02:25:00,73.0,64.6,30.24,SW,216,13.0,18.0,75,0.00,,,0.00,Wunderground v.1.15,2013-08-26 06:25:00,
2013-08-26 02:30:00,72.8,64.8,30.24,SW,230,15.0,15.0,76,0.00,,,0.00,Wunderground v.1.15,2013-08-26 06:30:00,
2013-08-26 02:35:00,72.8,65.5,30.24,SW,215,13.0,17.0,78,0.00,,,0.00,Wunderground v.1.15,2013-08-26 06:35:00,
2013-08-26 02:40:00,72.7,65.8,30.24,SSW,209,17.0,17.0,79,0.00,,,0.00,Wunderground v.1.15,2013-08-26 06:40:00,
2013-08-26 02:45:00,72.6,65.3,30.24,SW,221,13.0,17.0,78,0.00,,,0.00,Wunderground v.1.15,2013-08-26 06:45:00,
2013-08-26 02:50:00,72.3,64.7,30.24,SW,227,14.0,14.0,77,0.00,,,0.00,Wunderground v.1.15,2013-08-26 06:50:00,
2013-08-26 02:55:00,72.2,65.3,30.24,SSW,211,10.0,15.0,79,0.00,,,0.00,Wunderground v.1.15,2013-08-26 06:55:00,
2013-08-26 03:00:00,72.2,66.0,30.24,SW,222,11.0,13.0,81,0.00,,,0.00,Wunderground v.1.15,2013-08-26 07:00:00,
2013-08-26 03:05:00,72.2,65.7,30.24,SW,225,14.0,16.0,80,0.00,,,0.00,Wunderground v.1.15,2013-08-26 07:05:00,
2013-08-26 03:10:00,72.1,65.6,30.25,SW,229,11.0,14.0,80,0.00,,,0.00,Wunderground v.1.15,2013-08-26 07:10:00,
2013-08-26 03:15:00,72.0,65.5,30.24,SW,232,13.0,17.0,80,0.00,,,0.00,Wunderground v.1.15,2013-08-26 07:15:00,
2013-08-26 03:20:00,72.0,66.2,30.24,SW,227,11.0,12.0,82,0.00,,,0.00,Wunderground v.1.15,2013-08-26 07:20:00,
2013-08-26 03:25:00,71.9,65.4,30.24,SW,232,11.0,16.0,80,0.00,,,0.00,Wunderground v.1.15,2013-08-26 07:25:00,
2013-08-26 03:30:00,71.7,65.2,30.24,SW,215,13.0,14.0,80,0.00,,,0.00,Wunderground v.1.15,2013-08-26 07:30:00,
2013-08-26 03:35:00,71.6,65.5,30.24,SW,214,15.0,17.0,81,0.00,,,0.00,Wunderground v.1.15,2013-08-26 07:35:00,
2013-08-26 03:40:00,71.5,65.4,30.24,SW,215,14.0,15.0,81,0.00,,,0.00,Wunderground v.1.15,2013-08-26 07:40:00,
2013-08-26 03:45:00,71.4,64.9,30.24,SW,219,11.0,15.0,80,0.00,,,0.00,Wunderground v.1.15,2013-08-26 07:45:00,
2013-08-26 03:50:00,71.4,65.6,30.24,SW,218,12.0,12.0,82,0.00,,,0.00,Wunderground v.1.15,2013-08-26 07:50:00,
2013-08-26 03:55:00,71.4,65.6,30.24,SW,215,13.0,15.0,82,0.00,,,0.00,Wunderground v.1.15,2013-08-26 07:55:00,
2013-08-26 04:00:00,71.3,65.5,30.24,SSW,211,14.0,15.0,82,0.00,,,0.00,Wunderground v.1.15,2013-08-26 08:00:00,
2013-08-26 04:05:00,71.3,65.2,30.24,SW,219,13.0,16.0,81,0.00,,,0.00,Wunderground v.1.15,2013-08-26 08:05:00,
2013-08-26 04:10:00,71.3,64.8,30.24,SW,219,11.0,15.0,80,0.00,,,0.00,Wunderground v.1.15,2013-08-26 08:10:00,
2013-08-26 04:15:00,71.3,65.2,30.23,SW,223,11.0,17.0,81,0.00,,,0.00,Wunderground v.1.15,2013-08-26 08:15:00,
2013-08-26 04:20:00,71.3,65.5,30.24,SW,224,11.0,13.0,82,0.00,,,0.00,Wunderground v.1.15,2013-08-26 08:20:00,
2013-08-26 04:25:00,71.2,65.8,30.23,SW,215,10.0,15.0,83,0.00,,,0.00,Wunderground v.1.15,2013-08-26 08:25:00,
2013-08-26 04:30:00,71.1,65.7,30.24,SW,222,14.0,14.0,83,0.00,,,0.00,Wunderground v.1.15,2013-08-26 08:30:00,
2013-08-26 04:35:00,71.0,66.3,30.24,SW,223,9.0,14.0,85,0.00,,,0.00,Wunderground v.1.15,2013-08-26 08:35:00,
2013-08-26 04:40:00,70.8,65.7,30.24,SW,232,14.0,14.0,84,0.00,,,0.00,Wunderground v.1.15,2013-08-26 08:40:00,
2013-08-26 04:46:00,70.7,65.6,30.24,SW,223,11.0,15.0,84,0.00,,,0.00,Wunderground v.1.15,2013-08-26 08:46:00,
2013-08-26 04:51:00,70.6,65.5,30.24,SW,233,13.0,15.0,84,0.00,,,0.00,Wunderground v.1.15,2013-08-26 08:51:00,
2013-08-26 04:56:00,70.5,64.7,30.23,SW,236,15.0,16.0,82,0.00,,,0.00,Wunderground v.1.15,2013-08-26 08:56:00,
2013-08-26 05:01:00,70.5,65.4,30.23,SW,230,13.0,13.0,84,0.00,,,0.00,Wunderground v.1.15,2013-08-26 09:01:00,
2013-08-26 05:06:00,70.4,65.3,30.22,SW,227,16.0,16.0,84,0.00,,,0.00,Wunderground v.1.15,2013-08-26 09:06:00,
2013-08-26 05:11:00,70.3,65.2,30.22,SW,217,10.0,17.0,84,0.00,,,0.00,Wunderground v.1.15,2013-08-26 09:11:00,
2013-08-26 05:16:00,70.2,65.1,30.22,SW,234,15.0,17.0,84,0.00,,,0.00,Wunderground v.1.15,2013-08-26 09:16:00,
2013-08-26 05:21:00,70.1,65.0,30.22,SW,232,14.0,17.0,84,0.00,,,0.00,Wunderground v.1.15,2013-08-26 09:21:00,
2013-08-26 05:26:00,70.1,65.4,30.22,WSW,238,15.0,17.0,85,0.00,,,0.00,Wunderground v.1.15,2013-08-26 09:26:00,
2013-08-26 05:31:00,70.0,64.9,30.21,SW,232,14.0,18.0,84,0.00,,,0.00,Wunderground v.1.15,2013-08-26 09:31:00,
2013-08-26 05:36:00,70.0,65.6,30.21,SW,227,16.0,18.0,86,0.00,,,0.00,Wunderground v.1.15,2013-08-26 09:36:00,
2013-08-26 05:41:00,70.1,66.0,30.21,SW,219,10.0,17.0,87,0.00,,,0.00,Wunderground v.1.15,2013-08-26 09:41:00,
2013-08-26 05:46:00,70.0,65.6,30.21,SW,232,16.0,17.0,86,0.00,,,0.00,Wunderground v.1.15,2013-08-26 09:46:00,
2013-08-26 05:51:00,70.1,66.0,30.21,SW,222,10.0,15.0,87,0.00,,,0.00,Wunderground v.1.15,2013-08-26 09:51:00,
2013-08-26 05:56:00,70.0,65.6,30.21,SW,222,13.0,17.0,86,0.00,,,0.00,Wunderground v.1.15,2013-08-26 09:56:00,
2013-08-26 06:01:00,69.9,65.2,30.21,SW,223,12.0,15.0,85,0.00,,,0.00,Wunderground v.1.15,2013-08-26 10:01:00,
2013-08-26 06:06:00,69.9,65.5,30.21,SW,219,13.0,18.0,86,0.00,,,0.00,Wunderground v.1.15,2013-08-26 10:06:00,
2013-08-26 06:11:00,69.8,65.1,30.21,SW,232,13.0,16.0,85,0.00,,,0.00,Wunderground v.1.15,2013-08-26 10:11:00,
2013-08-26 06:16:00,69.8,65.4,30.21,SSW,210,13.0,16.0,86,0.00,,,0.00,Wunderground v.1.15,2013-08-26 10:16:00,
2013-08-26 06:21:00,69.7,65.0,30.21,SW,216,12.0,15.0,85,0.00,,,0.00,Wunderground v.1.15,2013-08-26 10:21:00,
2013-08-26 06:26:00,69.8,65.4,30.21,SW,217,12.0,16.0,86,0.00,,,0.00,Wunderground v.1.15,2013-08-26 10:26:00,
2013-08-26 06:31:00,69.8,65.1,30.22,SW,218,11.0,15.0,85,0.00,,,0.00,Wunderground v.1.15,2013-08-26 10:31:00,
2013-08-26 06:36:00,69.7,65.0,30.22,SW,223,10.0,15.0,85,0.00,,,0.00,Wunderground v.1.15,2013-08-26 10:36:00,
2013-08-26 06:41:00,69.8,65.4,30.22,SW,222,11.0,13.0,86,0.00,,,0.00,Wunderground v.1.15,2013-08-26 10:41:00,
2013-08-26 06:46:00,69.8,65.8,30.22,SW,223,12.0,16.0,87,0.00,,,0.00,Wunderground v.1.15,2013-08-26 10:46:00,
2013-08-26 06:51:00,69.7,65.0,30.22,SW,230,11.0,16.0,85,0.00,,,0.00,Wunderground v.1.15,2013-08-26 10:51:00,
2013-08-26 06:56:00,69.6,64.5,30.22,SW,224,11.0,16.0,84,0.00,,,0.00,Wunderground v.1.15,2013-08-26 10:56:00,
2013-08-26 07:01:00,69.6,64.9,30.22,SW,214,11.0,15.0,85,0.00,,,0.00,Wunderground v.1.15,2013-08-26 11:01:00,
2013-08-26 07:07:00,69.5,64.8,30.22,SW,225,9.0,15.0,85,0.00,,,0.00,Wunderground v.1.15,2013-08-26 11:07:00,
2013-08-26 07:12:00,69.5,64.8,30.22,SW,225,8.0,14.0,85,0.00,,,0.00,Wunderground v.1.15,2013-08-26 11:12:00,
2013-08-26 07:17:00,69.5,65.1,30.22,SW,232,12.0,14.0,86,0.00,,,0.00,Wunderground v.1.15,2013-08-26 11:17:00,
2013-08-26 07:22:00,69.5,64.8,30.22,SW,227,13.0,14.0,85,0.00,,,0.00,Wunderground v.1.15,2013-08-26 11:22:00,
2013-08-26 07:27:00,69.5,64.8,30.22,SW,236,12.0,15.0,85,0.00,,,0.00,Wunderground v.1.15,2013-08-26 11:27:00,
2013-08-26 07:32:00,69.5,64.1,30.23,SW,227,9.0,15.0,83,0.00,,,0.00,Wunderground v.1.15,2013-08-26 11:32:00,
2013-08-26 07:38:00,69.5,64.8,30.23,SW,229,7.0,15.0,85,0.00,,,0.00,Wunderground v.1.15,2013-08-26 11:38:00,
2013-08-26 07:43:00,69.6,65.2,30.23,SW,234,13.0,14.0,86,0.00,,,0.00,Wunderground v.1.15,2013-08-26 11:43:00,
2013-08-26 07:48:00,69.6,64.9,30.23,WSW,238,11.0,16.0,85,0.00,,,0.00,Wunderground v.1.15,2013-08-26 11:48:00,
2013-08-26 07:53:00,69.6,64.9,30.23,SW,232,10.0,12.0,85,0.00,,,0.00,Wunderground v.1.15,2013-08-26 11:53:00,
2013-08-26 07:58:00,69.7,65.0,30.24,SW,225,10.0,14.0,85,0.00,,,0.00,Wunderground v.1.15,2013-08-26 11:58:00,
2013-08-26 08:03:00,69.7,64.6,30.23,SW,226,9.0,12.0,84,0.00,,,0.00,Wunderground v.1.15,2013-08-26 12:03:00,
2013-08-26 08:08:00,69.8,65.1,30.23,SW,229,11.0,13.0,85,0.00,,,0.00,Wunderground v.1.15,2013-08-26 12:08:00,
2013-08-26 08:13:00,69.8,65.1,30.23,SW,223,12.0,12.0,85,0.00,,,0.00,Wunderground v.1.15,2013-08-26 12:13:00,
2013-08-26 08:18:00,69.7,64.6,30.23,SW,220,11.0,14.0,84,0.00,,,0.00,Wunderground v.1.15,2013-08-26 12:18:00,
2013-08-26 08:23:00,69.8,64.7,30.22,SW,220,9.0,14.0,84,0.00,,,0.00,Wunderground v.1.15,2013-08-26 12:23:00,
2013-08-26 08:28:00,69.9,65.2,30.23,SW,232,11.0,14.0,85,0.00,,,0.00,Wunderground v.1.15,2013-08-26 12:28:00,
2013-08-26 08:33:00,70.0,64.9,30.23,SW,220,10.0,12.0,84,0.00,,,0.00,Wunderground v.1.15,2013-08-26 12:33:00,
2013-08-26 08:38:00,70.1,65.0,30.23,SW,233,11.0,13.0,84,0.00,,,0.00,Wunderground v.1.15,2013-08-26 12:38:00,
2013-08-26 08:43:00,70.2,65.1,30.23,SW,234,10.0,13.0,84,0.00,,,0.00,Wunderground v.1.15,2013-08-26 12:43:00,
2013-08-26 08:48:00,70.4,65.3,30.22,SW,229,11.0,13.0,84,0.00,,,0.00,Wunderground v.1.15,2013-08-26 12:48:00,
2013-08-26 08:53:00,70.5,65.4,30.22,SW,235,12.0,12.0,84,0.00,,,0.00,Wunderground v.1.15,2013-08-26 12:53:00,
2013-08-26 08:58:00,70.6,65.5,30.23,SW,229,6.0,12.0,84,0.00,,,0.00,Wunderground v.1.15,2013-08-26 12:58:00,
2013-08-26 09:03:00,70.7,65.3,30.23,SW,234,7.0,12.0,83,0.00,,,0.00,Wunderground v.1.15,2013-08-26 13:03:00,
2013-08-26 09:08:00,70.8,65.7,30.23,SW,223,8.0,12.0,84,0.00,,,0.00,Wunderground v.1.15,2013-08-26 13:08:00,
2013-08-26 09:13:00,70.8,65.4,30.23,SW,228,9.0,10.0,83,0.00,,,0.00,Wunderground v.1.15,2013-08-26 13:13:00,
2013-08-26 09:18:00,71.0,65.9,30.22,SW,223,5.0,10.0,84,0.00,,,0.00,Wunderground v.1.15,2013-08-26 13:18:00,
2013-08-26 09:23:00,71.1,65.7,30.22,SW,223,6.0,10.0,83,0.00,,,0.00,Wunderground v.1.15,2013-08-26 13:23:00,
2013-08-26 09:28:00,71.2,65.4,30.22,SW,230,7.0,10.0,82,0.00,,,0.00,Wunderground v.1.15,2013-08-26 13:28:00,
2013-08-26 09:33:00,71.3,65.5,30.22,SW,235,5.0,9.0,82,0.00,,,0.00,Wunderground v.1.15,2013-08-26 13:33:00,
2013-08-26 09:38:00,71.3,65.9,30.23,WSW,250,10.0,10.0,83,0.00,,,0.00,Wunderground v.1.15,2013-08-26 13:38:00,
2013-08-26 09:43:00,71.3,65.5,30.22,WSW,255,6.0,13.0,82,0.00,,,0.00,Wunderground v.1.15,2013-08-26 13:43:00,
2013-08-26 09:48:00,71.2,65.1,30.22,West,263,11.0,13.0,81,0.00,,,0.00,Wunderground v.1.15,2013-08-26 13:48:00,
2013-08-26 09:53:00,71.2,65.1,30.23,West,265,6.0,10.0,81,0.00,,,0.00,Wunderground v.1.15,2013-08-26 13:53:00,
2013-08-26 09:58:00,71.3,65.2,30.23,West,265,6.0,10.0,81,0.00,,,0.00,Wunderground v.1.15,2013-08-26 13:58:00,
2013-08-26 10:03:00,71.3,65.2,30.23,West,260,6.0,8.0,81,0.00,,,0.00,Wunderground v.1.15,2013-08-26 14:03:00,
2013-08-26 10:08:00,71.5,65.4,30.23,SW,234,6.0,9.0,81,0.00,,,0.00,Wunderground v.1.15,2013-08-26 14:08:00,
2013-08-26 10:14:00,71.7,65.6,30.23,WSW,246,7.0,11.0,81,0.00,,,0.00,Wunderground v.1.15,2013-08-26 14:14:00,
2013-08-26 10:19:00,71.7,65.6,30.22,WSW,247,7.0,11.0,81,0.00,,,0.00,Wunderground v.1.15,2013-08-26 14:19:00,
2013-08-26 10:24:00,71.9,65.8,30.23,WSW,240,5.0,10.0,81,0.00,,,0.00,Wunderground v.1.15,2013-08-26 14:24:00,
2013-08-26 10:30:00,72.1,65.9,30.22,WSW,240,6.0,6.0,81,0.00,,,0.00,Wunderground v.1.15,2013-08-26 14:30:00,
2013-08-26 10:35:00,72.3,66.1,30.21,WSW,238,6.0,8.0,81,0.00,,,0.00,Wunderground v.1.15,2013-08-26 14:35:00,
2013-08-26 10:40:00,72.5,66.3,30.21,SW,221,9.0,10.0,81,0.00,,,0.00,Wunderground v.1.15,2013-08-26 14:40:00,
2013-08-26 10:45:00,72.7,66.5,30.21,SW,232,5.0,10.0,81,0.00,,,0.00,Wunderground v.1.15,2013-08-26 14:45:00,
2013-08-26 10:50:00,72.8,66.6,30.20,SW,223,8.0,9.0,81,0.00,,,0.00,Wunderground v.1.15,2013-08-26 14:50:00,
2013-08-26 10:57:00,73.0,67.2,30.20,SW,218,5.0,9.0,82,0.00,,,0.00,Wunderground v.1.15,2013-08-26 14:57:00,
2013-08-26 11:02:00,73.1,66.9,30.20,SSW,211,9.0,10.0,81,0.00,,,0.00,Wunderground v.1.15,2013-08-26 15:02:00,
2013-08-26 11:07:00,73.3,67.5,30.20,SSW,211,9.0,10.0,82,0.00,,,0.00,Wunderground v.1.15,2013-08-26 15:07:00,
2013-08-26 11:13:00,73.5,67.7,30.19,SSW,211,11.0,11.0,82,0.00,,,0.00,Wunderground v.1.15,2013-08-26 15:13:00,
2013-08-26 11:19:00,73.5,67.7,30.19,SSW,207,9.0,13.0,82,0.00,,,0.00,Wunderground v.1.15,2013-08-26 15:19:00,
2013-08-26 11:27:00,73.6,67.8,30.19,SSW,212,8.0,9.0,82,0.00,,,0.00,Wunderground v.1.15,2013-08-26 15:27:00,
2013-08-26 11:32:00,73.8,68.3,30.18,SSW,211,10.0,11.0,83,0.00,,,0.00,Wunderground v.1.15,2013-08-26 15:32:00,
2013-08-26 11:41:00,74.0,68.2,30.18,SW,218,6.0,8.0,82,0.00,,,0.00,Wunderground v.1.15,2013-08-26 15:41:00,
2013-08-26 11:46:00,74.2,68.7,30.18,SW,220,9.0,11.0,83,0.00,,,0.00,Wunderground v.1.15,2013-08-26 15:46:00,
2013-08-26 11:51:00,74.3,68.1,30.18,SSW,201,12.0,12.0,81,0.00,,,0.00,Wunderground v.1.15,2013-08-26 15:51:00,
2013-08-26 11:56:00,74.6,68.7,30.18,SSW,207,10.0,12.0,82,0.00,,,0.00,Wunderground v.1.15,2013-08-26 15:56:00,
2013-08-26 12:01:00,74.7,69.2,30.18,SSW,203,10.0,11.0,83,0.00,,,0.00,Wunderground v.1.15,2013-08-26 16:01:00,
2013-08-26 12:06:00,74.7,68.5,30.18,SSW,210,9.0,12.0,81,0.00,,,0.00,Wunderground v.1.15,2013-08-26 16:06:00,
2013-08-26 12:11:00,74.9,68.7,30.17,SSW,206,11.0,11.0,81,0.00,,,0.00,Wunderground v.1.15,2013-08-26 16:11:00,
2013-08-26 12:16:00,75.1,69.2,30.17,SSW,208,10.0,12.0,82,0.00,,,0.00,Wunderground v.1.15,2013-08-26 16:16:00,
2013-08-26 12:21:00,75.3,69.4,30.17,SSW,207,9.0,12.0,82,0.00,,,0.00,Wunderground v.1.15,2013-08-26 16:21:00,
2013-08-26 12:27:00,75.4,69.2,30.17,SSW,205,10.0,12.0,81,0.00,,,0.00,Wunderground v.1.15,2013-08-26 16:27:00,
2013-08-26 12:32:00,75.7,69.8,30.16,SSW,198,10.0,12.0,82,0.00,,,0.00,Wunderground v.1.15,2013-08-26 16:32:00,
2013-08-26 12:39:00,75.8,69.2,30.16,SSW,201,11.0,13.0,80,0.00,,,0.00,Wunderground v.1.15,2013-08-26 16:39:00,
2013-08-26 12:44:00,76.0,70.1,30.16,SSW,201,9.0,13.0,82,0.00,,,0.00,Wunderground v.1.15,2013-08-26 16:44:00,
2013-08-26 12:49:00,76.2,70.3,30.16,SSW,207,10.0,13.0,82,0.00,,,0.00,Wunderground v.1.15,2013-08-26 16:49:00,
2013-08-26 12:59:00,76.4,70.1,30.16,SSW,207,10.0,13.0,81,0.00,,,0.00,Wunderground v.1.15,2013-08-26 16:59:00,
2013-08-26 13:04:00,76.6,70.7,30.15,SSW,207,7.0,11.0,82,0.00,,,0.00,Wunderground v.1.15,2013-08-26 17:04:00,
2013-08-26 13:10:00,76.9,71.0,30.15,SSW,208,9.0,9.0,82,0.00,,,0.00,Wunderground v.1.15,2013-08-26 17:10:00,
2013-08-26 13:15:00,77.0,70.7,30.15,SSW,209,6.0,11.0,81,0.00,,,0.00,Wunderground v.1.15,2013-08-26 17:15:00,
2013-08-26 13:20:00,77.2,70.5,30.15,SSW,199,8.0,11.0,80,0.00,,,0.00,Wunderground v.1.15,2013-08-26 17:20:00,
2013-08-26 13:25:00,77.3,70.6,30.15,SSW,203,6.0,11.0,80,0.00,,,0.00,Wunderground v.1.15,2013-08-26 17:25:00,
2013-08-26 13:30:00,77.5,71.2,30.15,SSW,205,8.0,11.0,81,0.00,,,0.00,Wunderground v.1.15,2013-08-26 17:30:00,
2013-08-26 13:35:00,77.7,71.4,30.14,SSW,195,10.0,11.0,81,0.00,,,0.00,Wunderground v.1.15,2013-08-26 17:35:00,
2013-08-26 13:41:00,77.9,72.0,30.14,SSW,198,7.0,9.0,82,0.00,,,0.00,Wunderground v.1.15,2013-08-26 17:41:00,
2013-08-26 13:46:00,78.1,71.8,30.14,SSW,195,9.0,11.0,81,0.00,,,0.00,Wunderground v.1.15,2013-08-26 17:46:00,
2013-08-26 13:51:00,78.1,71.4,30.13,SSW,194,10.0,10.0,80,0.00,,,0.00,Wunderground v.1.15,2013-08-26 17:51:00,
2013-08-26 13:56:00,78.2,71.9,30.13,SSW,199,7.0,11.0,81,0.00,,,0.00,Wunderground v.1.15,2013-08-26 17:56:00,
2013-08-26 14:01:00,78.4,72.1,30.13,SSW,194,8.0,12.0,81,0.00,,,0.00,Wunderground v.1.15,2013-08-26 18:01:00,
2013-08-26 14:07:00,78.6,72.3,30.13,SSW,192,11.0,12.0,81,0.00,,,0.00,Wunderground v.1.15,2013-08-26 18:07:00,
2013-08-26 14:11:00,78.6,72.6,30.13,South,191,10.0,12.0,82,0.00,,,0.00,Wunderground v.1.15,2013-08-26 18:11:00,
2013-08-26 14:16:00,78.5,71.8,30.12,South,190,13.0,13.0,80,0.00,,,0.00,Wunderground v.1.15,2013-08-26 18:16:00,
2013-08-26 14:22:00,78.4,71.7,30.12,SSW,192,9.0,13.0,80,0.00,,,0.00,Wunderground v.1.15,2013-08-26 18:22:00,
2013-08-26 14:28:00,78.3,72.3,30.11,SSW,192,12.0,13.0,82,0.00,,,0.00,Wunderground v.1.15,2013-08-26 18:28:00,
2013-08-26 14:33:00,78.3,71.6,30.10,South,186,15.0,15.0,80,0.00,,,0.00,Wunderground v.1.15,2013-08-26 18:33:00,
2013-08-26 14:38:00,78.4,71.7,30.10,South,188,11.0,16.0,80,0.00,,,0.00,Wunderground v.1.15,2013-08-26 18:38:00,
2013-08-26 14:43:00,78.6,72.3,30.09,South,188,12.0,15.0,81,0.00,,,0.00,Wunderground v.1.15,2013-08-26 18:43:00,
2013-08-26 14:48:00,78.7,72.7,30.09,South,189,13.0,15.0,82,0.00,,,0.00,Wunderground v.1.15,2013-08-26 18:48:00,
2013-08-26 14:55:00,78.7,71.6,30.09,South,182,11.0,14.0,79,0.00,,,0.00,Wunderground v.1.15,2013-08-26 18:55:00,
2013-08-26 15:00:00,78.7,72.0,30.08,South,184,14.0,14.0,80,0.00,,,0.00,Wunderground v.1.15,2013-08-26 19:00:00,
2013-08-26 15:05:00,79.0,72.3,30.08,SSW,193,11.0,15.0,80,0.00,,,0.00,Wunderground v.1.15,2013-08-26 19:05:00,
2013-08-26 15:12:00,79.1,72.4,30.08,South,188,12.0,12.0,80,0.00,,,0.00,Wunderground v.1.15,2013-08-26 19:12:00,
2013-08-26 15:17:00,79.1,72.4,30.08,SSW,192,15.0,16.0,80,0.00,,,0.00,Wunderground v.1.15,2013-08-26 19:17:00,
2013-08-26 15:22:00,79.2,72.9,30.08,SSW,193,14.0,16.0,81,0.00,,,0.00,Wunderground v.1.15,2013-08-26 19:22:00,
2013-08-26 15:27:00,79.2,72.9,30.07,South,187,14.0,16.0,81,0.00,,,0.00,Wunderground v.1.15,2013-08-26 19:27:00,
2013-08-26 15:32:00,79.2,72.9,30.07,South,183,13.0,17.0,81,0.00,,,0.00,Wunderground v.1.15,2013-08-26 19:32:00,
2013-08-26 15:37:00,79.3,72.6,30.07,SSW,195,16.0,16.0,80,0.00,,,0.00,Wunderground v.1.15,2013-08-26 19:37:00,
2013-08-26 15:44:00,79.5,73.5,30.07,SSW,194,12.0,13.0,82,0.00,,,0.00,Wunderground v.1.15,2013-08-26 19:44:00,
2013-08-26 15:49:00,79.7,73.7,30.07,SSW,192,13.0,14.0,82,0.00,,,0.00,Wunderground v.1.15,2013-08-26 19:49:00,
2013-08-26 15:59:00,79.8,73.4,30.07,South,191,13.0,13.0,81,0.00,,,0.00,Wunderground v.1.15,2013-08-26 19:59:00,
2013-08-26 16:04:00,79.9,73.9,30.06,South,188,12.0,15.0,82,0.00,,,0.00,Wunderground v.1.15,2013-08-26 20:04:00,
2013-08-26 16:11:00,80.0,73.6,30.06,South,190,12.0,12.0,81,0.00,,,0.00,Wunderground v.1.15,2013-08-26 20:11:00,
2013-08-26 16:16:00,80.2,73.8,30.06,South,191,13.0,15.0,81,0.00,,,0.00,Wunderground v.1.15,2013-08-26 20:16:00,
2013-08-26 16:21:00,80.2,73.5,30.06,South,183,12.0,13.0,80,0.00,,,0.00,Wunderground v.1.15,2013-08-26 20:21:00,
2013-08-26 16:26:00,80.4,73.7,30.05,South,181,14.0,14.0,80,0.00,,,0.00,Wunderground v.1.15,2013-08-26 20:26:00,
2013-08-26 16:31:00,80.5,73.8,30.05,South,186,12.0,14.0,80,0.00,,,0.00,Wunderground v.1.15,2013-08-26 20:31:00,
2013-08-26 16:36:00,80.5,73.8,30.05,South,186,13.0,14.0,80,0.00,,,0.00,Wunderground v.1.15,2013-08-26 20:36:00,
2013-08-26 16:41:00,80.6,73.9,30.05,South,186,11.0,13.0,80,0.00,,,0.00,Wunderground v.1.15,2013-08-26 20:41:00,
2013-08-26 16:46:00,80.6,74.2,30.05,South,183,10.0,14.0,81,0.00,,,0.00,Wunderground v.1.15,2013-08-26 20:46:00,
2013-08-26 16:51:00,80.7,75.1,30.05,South,190,9.0,11.0,83,0.00,,,0.00,Wunderground v.1.15,2013-08-26 20:51:00,
2013-08-26 17:00:00,80.6,75.0,30.04,SSW,198,10.0,11.0,83,0.00,,,0.00,Wunderground v.1.15,2013-08-26 21:00:00,
2013-08-26 17:05:00,80.6,75.0,30.04,SSW,197,11.0,14.0,83,0.00,,,0.00,Wunderground v.1.15,2013-08-26 21:05:00,
2013-08-26 17:11:00,80.5,74.5,30.04,SSW,202,15.0,15.0,82,0.00,,,0.00,Wunderground v.1.15,2013-08-26 21:11:00,
2013-08-26 17:16:00,80.4,74.4,30.03,SSW,198,15.0,16.0,82,0.00,,,0.00,Wunderground v.1.15,2013-08-26 21:16:00,
2013-08-26 17:21:00,80.4,75.1,30.03,SSW,202,14.0,14.0,84,0.00,,,0.00,Wunderground v.1.15,2013-08-26 21:21:00,
2013-08-26 17:27:00,80.4,74.8,30.03,SSW,211,11.0,16.0,83,0.00,,,0.00,Wunderground v.1.15,2013-08-26 21:27:00,
2013-08-26 17:32:00,80.3,73.9,30.03,SSW,213,15.0,15.0,81,0.00,,,0.00,Wunderground v.1.15,2013-08-26 21:32:00,
2013-08-26 17:37:00,80.4,74.4,30.03,SSW,210,13.0,15.0,82,0.00,,,0.00,Wunderground v.1.15,2013-08-26 21:37:00,
2013-08-26 17:44:00,80.5,74.5,30.02,SSW,211,10.0,12.0,82,0.00,,,0.00,Wunderground v.1.15,2013-08-26 21:44:00,
2013-08-26 17:49:00,80.5,74.1,30.03,SW,214,9.0,15.0,81,0.00,,,0.00,Wunderground v.1.15,2013-08-26 21:49:00,
2013-08-26 17:55:00,80.6,74.2,30.03,SSW,213,11.0,12.0,81,0.00,,,0.00,Wunderground v.1.15,2013-08-26 21:55:00,
2013-08-26 18:00:00,80.6,74.2,30.03,SW,214,11.0,13.0,81,0.00,,,0.00,Wunderground v.1.15,2013-08-26 22:00:00,
2013-08-26 18:05:00,80.6,74.6,30.02,SSW,213,11.0,14.0,82,0.00,,,0.00,Wunderground v.1.15,2013-08-26 22:05:00,
2013-08-26 18:15:00,80.5,74.1,30.02,SW,214,8.0,10.0,81,0.00,,,0.00,Wunderground v.1.15,2013-08-26 22:15:00,
2013-08-26 18:20:00,80.5,74.1,30.02,SW,217,11.0,15.0,81,0.00,,,0.00,Wunderground v.1.15,2013-08-26 22:20:00,
2013-08-26 18:27:00,80.5,74.5,30.01,SW,217,12.0,12.0,82,0.00,,,0.00,Wunderground v.1.15,2013-08-26 22:27:00,
2013-08-26 18:32:00,80.4,74.8,30.01,SW,214,11.0,14.0,83,0.00,,,0.00,Wunderground v.1.15,2013-08-26 22:32:00,
2013-08-26 18:37:00,80.3,74.3,30.01,SW,216,10.0,14.0,82,0.00,,,0.00,Wunderground v.1.15,2013-08-26 22:37:00,
2013-08-26 18:44:00,80.3,74.3,30.01,SW,218,10.0,14.0,82,0.00,,,0.00,Wunderground v.1.15,2013-08-26 22:44:00,
2013-08-26 18:49:00,80.2,74.6,30.01,SW,221,8.0,12.0,83,0.00,,,0.00,Wunderground v.1.15,2013-08-26 22:49:00,
2013-08-26 18:55:00,80.1,74.8,30.01,SW,218,7.0,12.0,84,0.00,,,0.00,Wunderground v.1.15,2013-08-26 22:55:00,
2013-08-26 19:00:00,80.0,75.1,30.00,SW,215,9.0,11.0,85,0.00,,,0.00,Wunderground v.1.15,2013-08-26 23:00:00,
2013-08-26 19:05:00,79.8,74.9,30.00,SW,218,9.0,12.0,85,0.00,,,0.00,Wunderground v.1.15,2013-08-26 23:05:00,
2013-08-26 19:10:00,79.7,74.8,30.01,SW,221,8.0,9.0,85,0.00,,,0.00,Wunderground v.1.15,2013-08-26 23:10:00,
2013-08-26 19:15:00,79.6,74.7,30.00,SW,221,6.0,13.0,85,0.00,,,0.00,Wunderground v.1.15,2013-08-26 23:15:00,
2013-08-26 19:20:00,79.6,74.7,30.01,SW,222,6.0,10.0,85,0.00,,,0.00,Wunderground v.1.15,2013-08-26 23:20:00,
2013-08-26 19:25:00,79.6,75.0,30.01,SW,219,10.0,11.0,86,0.00,,,0.00,Wunderground v.1.15,2013-08-26 23:25:00,
2013-08-26 19:30:00,79.5,74.9,30.00,SW,219,9.0,10.0,86,0.00,,,0.00,Wunderground v.1.15,2013-08-26 23:30:00,
2013-08-26 19:35:00,79.4,74.8,30.01,SW,218,7.0,12.0,86,0.00,,,0.00,Wunderground v.1.15,2013-08-26 23:35:00,
2013-08-26 19:40:00,79.2,74.6,30.00,SW,221,9.0,11.0,86,0.00,,,0.00,Wunderground v.1.15,2013-08-26 23:40:00,
2013-08-26 19:45:00,79.2,74.3,30.01,SW,214,11.0,13.0,85,0.00,,,0.00,Wunderground v.1.15,2013-08-26 23:45:00,
2013-08-26 19:50:00,79.2,74.3,30.00,SW,215,10.0,11.0,85,0.00,,,0.00,Wunderground v.1.15,2013-08-26 23:50:00,
2013-08-26 19:55:00,79.2,74.6,30.00,SW,217,9.0,12.0,86,0.00,,,0.00,Wunderground v.1.15,2013-08-26 23:55:00,
2013-08-26 20:00:00,79.1,74.9,30.00,SW,219,7.0,11.0,87,0.00,,,0.00,Wunderground v.1.15,2013-08-27 00:00:00,
2013-08-26 20:05:00,79.0,74.8,30.00,SW,221,8.0,12.0,87,0.00,,,0.00,Wunderground v.1.15,2013-08-27 00:05:00,
2013-08-26 20:10:00,78.9,74.7,30.00,SW,222,7.0,11.0,87,0.00,,,0.00,Wunderground v.1.15,2013-08-27 00:10:00,
2013-08-26 20:15:00,78.9,74.7,30.00,SW,222,7.0,11.0,87,0.00,,,0.00,Wunderground v.1.15,2013-08-27 00:15:00,
2013-08-26 20:20:00,78.7,74.5,30.00,SW,219,7.0,10.0,87,0.00,,,0.00,Wunderground v.1.15,2013-08-27 00:20:00,
2013-08-26 20:25:00,78.7,74.8,30.00,SW,221,7.0,10.0,88,0.00,,,0.00,Wunderground v.1.15,2013-08-27 00:25:00,
2013-08-26 20:31:00,78.7,74.5,30.00,SW,223,9.0,10.0,87,0.00,,,0.00,Wunderground v.1.15,2013-08-27 00:31:00,
2013-08-26 20:36:00,78.7,74.5,30.01,SW,227,10.0,13.0,87,0.00,,,0.00,Wunderground v.1.15,2013-08-27 00:36:00,
2013-08-26 20:41:00,78.7,74.2,30.01,SW,229,11.0,11.0,86,0.00,,,0.00,Wunderground v.1.15,2013-08-27 00:41:00,
2013-08-26 20:46:00,78.7,74.5,30.01,SW,232,10.0,11.0,87,0.00,,,0.00,Wunderground v.1.15,2013-08-27 00:46:00,
2013-08-26 20:51:00,78.7,74.8,30.01,SW,232,9.0,11.0,88,0.00,,,0.00,Wunderground v.1.15,2013-08-27 00:51:00,
2013-08-26 20:56:00,78.6,74.4,30.01,SW,229,9.0,12.0,87,0.00,,,0.00,Wunderground v.1.15,2013-08-27 00:56:00,
2013-08-26 21:01:00,78.5,74.0,30.01,SW,230,7.0,11.0,86,0.00,,,0.00,Wunderground v.1.15,2013-08-27 01:01:00,
2013-08-26 21:06:00,78.4,73.9,30.01,SW,233,11.0,12.0,86,0.00,,,0.00,Wunderground v.1.15,2013-08-27 01:06:00,
2013-08-26 21:11:00,78.4,74.2,30.01,SW,232,11.0,11.0,87,0.00,,,0.00,Wunderground v.1.15,2013-08-27 01:11:00,
2013-08-26 21:16:00,78.3,73.8,30.01,SW,233,6.0,12.0,86,0.00,,,0.00,Wunderground v.1.15,2013-08-27 01:16:00,
2013-08-26 21:21:00,78.2,73.7,30.01,SW,236,10.0,12.0,86,0.00,,,0.00,Wunderground v.1.15,2013-08-27 01:21:00,
2013-08-26 21:26:00,78.2,73.7,30.01,SW,236,10.0,12.0,86,0.00,,,0.00,Wunderground v.1.15,2013-08-27 01:26:00,
2013-08-26 21:31:00,78.1,73.6,30.01,SW,236,11.0,12.0,86,0.00,,,0.00,Wunderground v.1.15,2013-08-27 01:31:00,
2013-08-26 21:36:00,78.0,73.5,30.01,WSW,238,11.0,12.0,86,0.00,,,0.00,Wunderground v.1.15,2013-08-27 01:36:00,
2013-08-26 21:41:00,77.9,73.4,30.02,WSW,240,11.0,13.0,86,0.00,,,0.00,Wunderground v.1.15,2013-08-27 01:41:00,
2013-08-26 21:46:00,78.0,73.5,30.02,WSW,238,9.0,13.0,86,0.00,,,0.00,Wunderground v.1.15,2013-08-27 01:46:00,
2013-08-26 21:51:00,77.9,73.4,30.02,SW,233,10.0,13.0,86,0.00,,,0.00,Wunderground v.1.15,2013-08-27 01:51:00,
2013-08-26 21:56:00,77.8,73.6,30.02,SW,234,10.0,13.0,87,0.00,,,0.00,Wunderground v.1.15,2013-08-27 01:56:00,
2013-08-26 22:01:00,77.8,73.6,30.01,SW,236,11.0,13.0,87,0.00,,,0.00,Wunderground v.1.15,2013-08-27 02:01:00,
2013-08-26 22:06:00,77.7,73.2,30.01,SW,229,10.0,14.0,86,0.00,,,0.00,Wunderground v.1.15,2013-08-27 02:06:00,
2013-08-26 22:11:00,77.7,73.2,30.01,SW,235,7.0,14.0,86,0.00,,,0.00,Wunderground v.1.15,2013-08-27 02:11:00,
2013-08-26 22:16:00,77.7,73.5,30.01,SW,234,11.0,14.0,87,0.00,,,0.00,Wunderground v.1.15,2013-08-27 02:16:00,
2013-08-26 22:21:00,77.6,73.1,30.01,SW,232,10.0,12.0,86,0.00,,,0.00,Wunderground v.1.15,2013-08-27 02:21:00,
2013-08-26 22:26:00,77.6,73.1,30.01,SW,232,10.0,13.0,86,0.00,,,0.00,Wunderground v.1.15,2013-08-27 02:26:00,
2013-08-26 22:31:00,77.6,73.1,30.00,SW,228,10.0,13.0,86,0.00,,,0.00,Wunderground v.1.15,2013-08-27 02:31:00,
2013-08-26 22:36:00,77.6,73.4,30.00,SW,224,12.0,13.0,87,0.00,,,0.00,Wunderground v.1.15,2013-08-27 02:36:00,
2013-08-26 22:41:00,77.6,73.4,30.00,WSW,237,10.0,13.0,87,0.00,,,0.00,Wunderground v.1.15,2013-08-27 02:41:00,
2013-08-26 22:46:00,77.6,73.1,30.01,SW,233,9.0,14.0,86,0.00,,,0.00,Wunderground v.1.15,2013-08-27 02:46:00,
2013-08-26 22:51:00,77.6,73.4,30.01,WSW,240,11.0,12.0,87,0.00,,,0.00,Wunderground v.1.15,2013-08-27 02:51:00,
2013-08-26 22:56:00,77.6,72.7,30.00,WSW,246,12.0,15.0,85,0.00,,,0.00,Wunderground v.1.15,2013-08-27 02:56:00,
2013-08-26 23:01:00,77.8,72.9,30.01,WSW,248,12.0,14.0,85,0.00,,,0.00,Wunderground v.1.15,2013-08-27 03:01:00,
2013-08-26 23:06:00,77.9,73.0,30.00,WSW,246,11.0,15.0,85,0.00,,,0.00,Wunderground v.1.15,2013-08-27 03:06:00,
2013-08-26 23:11:00,78.0,73.1,30.00,WSW,241,10.0,14.0,85,0.00,,,0.00,Wunderground v.1.15,2013-08-27 03:11:00,
2013-08-26 23:16:00,78.0,73.1,30.00,WSW,245,11.0,14.0,85,0.00,,,0.00,Wunderground v.1.15,2013-08-27 03:16:00,
2013-08-26 23:21:00,78.0,73.1,30.00,WSW,246,14.0,15.0,85,0.00,,,0.00,Wunderground v.1.15,2013-08-27 03:21:00,
2013-08-26 23:26:00,78.0,72.8,30.00,WSW,246,9.0,15.0,84,0.00,,,0.00,Wunderground v.1.15,2013-08-27 03:26:00,
2013-08-26 23:31:00,78.0,72.8,30.00,WSW,248,12.0,15.0,84,0.00,,,0.00,Wunderground v.1.15,2013-08-27 03:31:00,
2013-08-26 23:36:00,77.9,72.7,30.00,WSW,242,13.0,15.0,84,0.00,,,0.00,Wunderground v.1.15,2013-08-27 03:36:00,
2013-08-26 23:41:00,77.8,72.6,30.00,WSW,246,12.0,14.0,84,0.00,,,0.00,Wunderground v.1.15,2013-08-27 03:41:00,
2013-08-26 23:46:00,77.7,72.8,29.99,WSW,242,11.0,15.0,85,0.00,,,0.00,Wunderground v.1.15,2013-08-27 03:46:00,
2013-08-26 23:51:00,77.6,72.4,30.00,WSW,243,12.0,14.0,84,0.00,,,0.00,Wunderground v.1.15,2013-08-27 03:51:00,
2013-08-26 23:56:00,77.5,72.3,29.99,WSW,246,13.0,15.0,84,0.00,,,0.00,Wunderground v.1.15,2013-08-27 03:56:00,